• Join FlightAware (Why Join?)
  • Login
  • US Flag 
10:12AM EDT


 

Airport Tracker/Info


-or-


 

Live Flight TrackerFlight Track Log ✈ SWA625 ✈ 27-Apr-2013 ✈ KMSY - KBNA

Flight Track Log - Related Links

Times and Time Zones

All times are in EDT time to prevent confusion due to time zone crossing. See the SWA625 flight status page for this flight to view local times or setup timezone preferences in your user account.

Time Position Orientation Groundspeed Altitude Reporting Facility
EDT Latitude Longitude Course Direction KTS MPH feet Rate Location/Type
03:04PM 29.9311 -90.2672 194° South 187 215 3,100  Level Houston Center
03:05PM 29.9058 -90.2158 120° Southeast 250 288 6,000 3,300 Climbing Houston Center
03:05PM 29.9136 -90.2036 54° Northeast 239 275 6,500 2,640 Climbing Houston Center
03:06PM 29.9739 -90.1553 35° Northeast 261 300 9,500 2,700 Climbing Houston Center
03:07PM 30.0447 -90.1014 33° Northeast 293 337 12,200 2,460 Climbing Houston Center
03:08PM 30.1306 -90.0506 27° Northeast 337 388 14,700 2,580 Climbing Houston Center
03:09PM 30.2414 -89.9911 25° Northeast 364 419 17,600 2,580 Climbing Houston Center
03:10PM 30.3394 -89.9375 25° Northeast 382 440 20,000 2,340 Climbing Houston Center
03:11PM 30.4400 -89.8839 25° Northeast 387 445 22,400 2,100 Climbing Houston Center
03:12PM 30.5431 -89.8278 25° Northeast 399 459 24,400 1,800 Climbing Houston Center
03:13PM 30.6478 -89.7703 25° Northeast 409 471 26,200 1,620 Climbing Houston Center
03:14PM 30.7539 -89.7117 25° Northeast 418 481 27,800 1,200 Climbing Houston Center
03:15PM 30.8658 -89.6506 25° Northeast 438 504 28,700 1,200 Climbing Houston Center
03:16PM 30.9803 -89.5878 25° Northeast 451 519 30,300 1,500 Climbing Houston Center
03:17PM 31.0942 -89.5253 25° Northeast 453 521 31,900 1,740 Climbing Houston Center
03:18PM 31.2050 -89.4631 26° Northeast 443 510 33,900 1,500 Climbing Houston Center
03:19PM 31.3331 -89.3933 25° Northeast 438 504 35,000 480 Climbing Houston Center
03:20PM 31.4456 -89.3308 25° Northeast 443 510 35,000  Level Houston Center
03:21PM 31.5639 -89.2869 18° North 440 506 35,000  Level Houston Center
03:22PM 31.6819 -89.2406 18° North 443 510 35,000  Level Houston Center
03:23PM 31.8042 -89.1889 20° North 442 509 35,000  Level Memphis Center
03:24PM 31.9208 -89.1483 16° North 435 501 35,000  Level Memphis Center
03:25PM 32.0414 -89.0953 20° North 444 511 35,000  Level Memphis Center
03:26PM 32.1578 -89.0494 18° North 444 511 35,000  Level Memphis Center
03:27PM 32.2783 -89.0011 19° North 444 511 35,000  Level Memphis Center
03:28PM 32.3989 -88.9547 18° North 444 511 35,000  Level Memphis Center
03:29PM 32.5172 -88.9086 18° North 444 511 35,000  Level Memphis Center
03:30PM 32.6378 -88.8575 20° North 444 511 35,000  Level Memphis Center
03:31PM 32.7561 -88.8133 17° North 444 511 35,000  Level Memphis Center
03:32PM 32.8892 -88.7592 19° North 450 518 35,000  Level Memphis Center
03:33PM 33.0117 -88.7072 20° North 450 518 35,000  Level Memphis Center
03:34PM 33.1319 -88.6603 18° North 450 518 35,000  Level Memphis Center
03:35PM 33.2503 -88.6133 18° North 450 518 35,000  Level Memphis Center
03:36PM 33.3708 -88.5636 19° North 450 518 35,000  Level Memphis Center
03:37PM 33.4911 -88.5139 19° North 450 518 35,000  Level Memphis Center
03:38PM 33.6053 -88.4667 19° North 443 510 35,000  Level Memphis Center
03:39PM 33.7214 -88.4167 20° North 438 504 35,000  Level Memphis Center
03:40PM 33.8394 -88.3664 19° North 443 510 35,000  Level Memphis Center
03:41PM 33.9556 -88.3164 20° North 443 510 35,000 -240 Level Memphis Center
03:42PM 34.0736 -88.2683 19° North 443 510 34,600 -660 Descending Memphis Center
03:43PM 34.1772 -88.2256 19° North 437 503 33,700 -1,080 Descending Memphis Center
03:44PM 34.3056 -88.1619 22° Northeast 448 516 32,500 -1,200 Descending Memphis Center
03:45PM 34.4217 -88.1139 19° North 448 516 31,400 -1,200 Descending Memphis Center
03:46PM 34.5375 -88.0653 19° North 441 507 30,100 -1,320 Descending Memphis Center
03:47PM 34.6556 -88.0142 20° North 448 516 28,800 -1,080 Descending Memphis Center
03:48PM 34.7756 -87.9703 17° North 443 510 28,000 -420 Descending Memphis Center
03:49PM 34.8928 -87.9797 356° North 425 489 28,000  Level Memphis Center
03:50PM 35.0139 -87.9967 353° North 426 490 28,000  Level Memphis Center
03:51PM 35.1164 -88.0064 356° North 451 519 28,000 -180 Level Memphis Center
03:52PM 35.2447 -87.9494 20° North 439 505 27,700 -720 Descending Memphis Center
03:53PM 35.3578 -87.8647 31° Northeast 445 512 26,600 -1,200 Descending Memphis Center
03:54PM 35.4811 -87.7767 30° Northeast 456 525 25,300 -1,860 Descending Memphis Center
03:55PM 35.5878 -87.6944 32° Northeast 463 533 22,900 -2,400 Descending Memphis Center
03:56PM 35.6903 -87.6144 32° Northeast 453 521 20,500 -2,520 Descending Memphis Center
03:57PM 35.7889 -87.5419 31° Northeast 429 494 17,900 -2,580 Descending Memphis Center
03:58PM 35.8506 -87.4194 58° Northeast 400 460 15,400 -2,580 Descending Memphis Center
03:59PM 35.8975 -87.2897 66° East 410 472 12,800 -2,400 Descending Memphis Center
04:00PM 35.9403 -87.1650 67° East 397 457 10,700 -1,860 Descending Memphis Center
04:01PM 35.9853 -87.0556 63° Northeast 369 425 9,100 -1,320 Descending Memphis Center
04:02PM 36.0264 -86.9564 63° Northeast 332 382 8,100 -1,320 Descending Memphis Center
04:03PM 36.0656 -86.8650 62° Northeast 305 351 6,500 -1,440 Descending Memphis Center
04:04PM 36.1200 -86.7958 46° Northeast 297 342 5,300 -900 Descending Memphis Center
04:05PM 36.1878 -86.7669 19° North 255 293 4,700 -900 Descending Memphis Center
04:06PM 36.2456 -86.7389 21° North 237 273 3,600 -900 Descending Memphis Center
04:07PM 36.2708 -86.6811 62° Northeast 193 222 3,000 -360 Descending Memphis Center
04:08PM 36.2567 -86.6275 108° East 172 198 2,900 -480 Descending Memphis Center
04:09PM 36.2108 -86.6272 180° South 127 146 2,100 -780 Descending Memphis Center
04:10PM 36.1739 -86.6442 200° South 132 152 1,400 -720 Descending Memphis Center
04:13PM 36.1167 -86.6667 158° South  Level FlightAware Approximate
04:20PM 36.1245 -86.6782 158° South  Level Estimated
04:21PM 36.1245 -86.6782 158° South  Level Estimated
04:22PM 36.1245 -86.6782 158° South  Level Estimated
04:23PM 36.1245 -86.6782 158° South  Level Estimated
04:24PM 36.1245 -86.6782 158° South  Level Estimated
04:25PM 36.1245 -86.6782 158° South  Level Estimated